Time;durP1;ratioP1;P1;durP2;ratioP2;P2;SDS_P1;SDS_P2;PMS_P1;PMS_P2;Temp;Humidity;BMP_temperature;BMP_pressure;BME280_temperature;BME280_humidity;BME280_pressure;Samples;Min_cycle;Max_cycle;Signal;HPM_P1;HPM_P2
2021/04/05 00:00:30;;;;;;;12.20;4.77;;;;;;;4.57;63.77;99915.17;5116047;56;1144204;-73
2021/04/05 00:05:57;;;;;;;12.67;4.33;;;;;;;4.50;64.38;99911.24;5129241;56;1134543;-72
2021/04/05 00:11:23;;;;;;;14.20;5.23;;;;;;;4.41;64.56;99909.20;5098803;55;1134698;-72
2021/04/05 00:16:49;;;;;;;12.83;3.47;;;;;;;4.35;64.78;99896.02;5132951;56;1134634;-72
2021/04/05 00:22:14;;;;;;;20.93;7.00;;;;;;;4.30;65.49;99884.14;5109162;56;1134529;-73
2021/04/05 00:27:42;;;;;;;15.53;5.40;;;;;;;4.28;65.11;99865.91;5112268;56;1134908;-72
2021/04/05 00:33:07;;;;;;;16.53;5.47;;;;;;;4.26;65.25;99857.80;5106227;56;1134573;-72
2021/04/05 00:38:33;;;;;;;16.43;6.30;;;;;;;4.19;65.57;99847.70;5144471;56;1134310;-73
2021/04/05 00:43:58;;;;;;;16.93;6.77;;;;;;;4.14;66.38;99827.50;5124655;56;1134407;-72
2021/04/05 00:49:24;;;;;;;16.40;6.40;;;;;;;4.11;66.16;99813.33;5088345;55;1134337;-72
2021/04/05 00:54:51;;;;;;;23.00;6.63;;;;;;;4.04;67.50;99812.48;5132752;56;1134993;-72
2021/04/05 01:00:38;;;;;;;22.80;5.87;;;;;;;3.98;66.66;99805.84;5126017;56;1134419;-72
2021/04/05 01:06:13;;;;;;;14.87;5.77;;;;;;;3.88;67.44;99779.89;5107641;56;1134491;-72
2021/04/05 01:11:39;;;;;;;17.73;5.62;;;;;;;3.81;68.36;99734.98;5119591;56;1134605;-72
2021/04/05 01:17:05;;;;;;;22.70;7.47;;;;;;;3.72;67.87;99733.38;5085607;56;1134935;-73
2021/04/05 01:22:31;;;;;;;19.47;6.03;;;;;;;3.67;68.42;99723.66;5115695;56;1139186;-72
2021/04/05 01:27:58;;;;;;;10.70;4.57;;;;;;;3.63;68.65;99696.89;5106851;56;1134657;-72
2021/04/05 01:33:36;;;;;;;20.63;7.73;;;;;;;3.64;68.54;99692.50;5112283;56;1134595;-72
2021/04/05 01:39:01;;;;;;;16.27;6.07;;;;;;;3.62;68.55;99676.06;5113772;56;1135654;-72
2021/04/05 01:44:27;;;;;;;13.95;4.75;;;;;;;3.64;69.00;99659.36;5116347;55;1134646;-73
2021/04/05 01:49:53;;;;;;;17.10;5.33;;;;;;;3.60;69.77;99655.71;5102257;55;1134498;-72
2021/04/05 01:55:19;;;;;;;18.77;6.10;;;;;;;3.60;69.37;99655.25;5132035;56;1134718;-72
2021/04/05 02:00:47;;;;;;;11.00;5.03;;;;;;;3.59;69.50;99654.03;5119098;56;1134481;-72
2021/04/05 02:06:28;;;;;;;10.43;4.90;;;;;;;3.60;69.49;99617.34;5119052;56;1134565;-72
2021/04/05 02:11:55;;;;;;;7.90;3.57;;;;;;;3.58;70.46;99597.45;5101397;56;1134282;-72
2021/04/05 02:17:21;;;;;;;14.00;4.63;;;;;;;3.55;71.05;99581.48;5100540;56;1132242;-72
2021/04/05 02:22:53;;;;;;;8.77;4.20;;;;;;;3.47;71.96;99600.75;5095647;56;1134631;-72
2021/04/05 02:28:18;;;;;;;14.00;5.07;;;;;;;3.48;71.89;99573.68;5102576;56;1132310;-71
2021/04/05 02:33:47;;;;;;;19.05;6.70;;;;;;;3.43;71.68;99553.05;5110525;56;1134755;-72
2021/04/05 02:39:13;;;;;;;16.73;7.80;;;;;;;3.39;71.38;99533.27;5141154;55;1134837;-72
2021/04/05 02:44:39;;;;;;;7.12;4.55;;;;;;;3.33;72.26;99516.69;5137880;56;1134318;-72
2021/04/05 02:50:10;;;;;;;21.73;8.37;;;;;;;3.34;72.91;99486.17;5110410;56;1132417;-71
2021/04/05 02:55:37;;;;;;;17.20;5.73;;;;;;;3.34;72.52;99484.86;4963067;57;1134419;-72
2021/04/05 03:01:05;;;;;;;17.07;6.83;;;;;;;3.34;72.88;99477.02;5134117;56;1134624;-71
2021/04/05 03:06:31;;;;;;;18.27;7.63;;;;;;;3.31;73.28;99454.53;5118479;56;1134848;-71
2021/04/05 03:11:59;;;;;;;17.10;6.73;;;;;;;3.35;72.72;99443.42;5117367;56;1134508;-71
2021/04/05 03:17:26;;;;;;;9.37;5.70;;;;;;;3.33;73.49;99436.14;5102288;55;1134568;-71
2021/04/05 03:22:52;;;;;;;12.30;6.60;;;;;;;3.33;73.55;99411.32;5136984;56;1132653;-71
2021/04/05 03:28:19;;;;;;;20.10;7.37;;;;;;;3.33;73.25;99399.56;5117266;56;1134709;-71
2021/04/05 03:34:18;;;;;;;13.10;6.75;;;;;;;3.30;73.46;99376.23;5123509;56;1134682;-72
2021/04/05 03:39:43;;;;;;;16.75;6.95;;;;;;;3.29;73.88;99364.95;4954549;57;1134736;-71
2021/04/05 03:45:25;;;;;;;15.45;6.12;;;;;;;3.25;73.86;99352.17;4942280;57;1134550;-71
2021/04/05 03:51:13;;;;;;;28.33;8.80;;;;;;;3.23;74.29;99335.76;5132787;56;1134494;-71
2021/04/05 03:56:51;;;;;;;15.72;6.58;;;;;;;3.23;73.80;99314.39;5132415;56;1134914;-72
2021/04/05 04:02:28;;;;;;;13.17;5.53;;;;;;;3.22;74.24;99315.80;5108090;56;1134883;-72
2021/04/05 04:13:28;;;;;;;15.70;6.90;;;;;;;3.21;74.56;99302.39;5102578;55;1134496;-71
2021/04/05 04:18:58;;;;;;;9.00;5.25;;;;;;;3.21;74.45;99296.67;5093737;55;1134484;-71
2021/04/05 04:24:24;;;;;;;17.93;7.77;;;;;;;3.16;75.00;99292.24;5123889;56;1132712;-71
2021/04/05 04:29:57;;;;;;;20.33;8.83;;;;;;;3.20;74.57;99271.98;5143079;56;1134728;-71
2021/04/05 04:35:23;;;;;;;17.23;6.00;;;;;;;3.18;74.61;99276.00;5144541;55;1134991;-71
2021/04/05 04:40:49;;;;;;;17.13;6.90;;;;;;;3.18;74.61;99279.45;5120866;55;1134661;-71
2021/04/05 04:46:16;;;;;;;19.37;8.03;;;;;;;3.18;74.76;99266.39;5115373;55;1134761;-71
2021/04/05 04:51:42;;;;;;;14.38;6.90;;;;;;;3.19;74.72;99246.33;5112270;56;1134599;-71
2021/04/05 04:57:08;;;;;;;15.37;4.93;;;;;;;3.24;74.52;99245.99;5114104;56;1134409;-72
2021/04/05 05:02:35;;;;;;;14.07;7.23;;;;;;;3.23;75.07;99237.31;5130779;55;1134797;-72
2021/04/05 05:08:01;;;;;;;15.43;7.00;;;;;;;3.25;74.94;99215.01;5137199;56;1134587;-72
2021/04/05 05:13:26;;;;;;;14.50;7.00;;;;;;;3.26;74.98;99206.23;5082977;56;1134484;-72
2021/04/05 05:18:57;;;;;;;19.23;9.00;;;;;;;3.30;74.88;99171.95;5050270;56;1134565;-71
2021/04/05 05:24:25;;;;;;;25.47;10.13;;;;;;;3.31;74.44;99151.42;5092210;56;1135072;-72
2021/04/05 05:29:53;;;;;;;15.67;6.27;;;;;;;3.36;74.17;99153.72;5059806;56;1136671;-71
2021/04/05 05:35:20;;;;;;;14.33;8.13;;;;;;;3.37;74.85;99143.60;5057800;56;1134963;-71
2021/04/05 05:40:48;;;;;;;18.30;10.35;;;;;;;3.44;74.21;99130.48;5117148;56;1134715;-71
2021/04/05 05:46:35;;;;;;;20.50;8.43;;;;;;;3.49;74.28;99116.63;5048616;56;1136804;-72
2021/04/05 05:52:22;;;;;;;22.97;12.23;;;;;;;3.54;74.36;99115.34;4895019;58;1134466;-72
2021/04/05 05:58:17;;;;;;;14.30;5.25;;;;;;;3.62;74.10;99120.03;4819956;59;1136846;-72
2021/04/05 06:03:58;;;;;;;18.30;9.20;;;;;;;3.73;74.23;99097.03;4904952;58;1134557;-72
2021/04/05 06:09:53;;;;;;;19.83;10.40;;;;;;;3.84;73.65;99095.78;4861374;59;1134503;-71
2021/04/05 06:15:26;;;;;;;17.80;7.22;;;;;;;3.91;73.39;99050.41;4854809;60;1136945;-71
2021/04/05 06:21:21;;;;;;;21.40;9.60;;;;;;;4.02;73.23;99066.97;4853691;59;1134567;-72
2021/04/05 06:26:53;;;;;;;19.20;6.90;;;;;;;4.09;72.75;99045.97;4827398;59;1134618;-71
2021/04/05 06:32:49;;;;;;;20.97;8.30;;;;;;;4.17;72.31;99030.52;4890963;58;1134585;-71
2021/04/05 06:38:32;;;;;;;22.07;8.07;;;;;;;4.23;71.72;99011.75;4885651;59;1134641;-72
2021/04/05 06:44:16;;;;;;;22.93;9.17;;;;;;;4.29;71.22;98988.19;4830385;58;1134933;-72
2021/04/05 06:50:01;;;;;;;;;;;;;;;4.37;71.06;98963.59;4964780;57;1134554;-72
2021/04/05 06:55:36;;;;;;;23.10;6.97;;;;;;;4.48;70.62;98980.60;4980997;57;970012;-72
2021/04/05 07:01:26;;;;;;;35.13;12.23;;;;;;;4.56;70.28;98971.70;4918209;57;1133000;-72
2021/04/05 07:06:56;;;;;;;33.17;13.53;;;;;;;4.63;70.38;98945.02;4920231;58;1137036;-72
2021/04/05 07:12:49;;;;;;;28.40;9.40;;;;;;;4.68;69.85;98941.57;4874980;58;1136411;-72
2021/04/05 07:19:09;;;;;;;39.27;13.27;;;;;;;4.74;69.46;98922.26;4948619;57;1134446;-72
2021/04/05 07:24:53;;;;;;;30.73;11.00;;;;;;;4.82;69.62;98906.78;4997548;57;1137478;-73
2021/04/05 07:30:28;;;;;;;39.70;12.37;;;;;;;4.95;68.78;98904.02;5053979;57;1137106;-71
2021/04/05 07:36:16;;;;;;;55.77;19.00;;;;;;;5.02;68.59;98888.17;5113244;55;1137121;-72
2021/04/05 07:41:58;;;;;;;41.80;14.63;;;;;;;5.16;68.92;98880.02;5156477;56;1136749;-71
2021/04/05 07:48:02;;;;;;;33.93;9.23;;;;;;;5.27;68.47;98853.76;4997985;57;1136798;-71
2021/04/05 07:53:32;;;;;;;31.87;9.03;;;;;;;5.40;67.44;98848.80;4914374;57;1134660;-72
2021/04/05 07:59:35;;;;;;;32.20;10.97;;;;;;;5.47;66.80;98829.00;4934169;57;1134720;-72
2021/04/05 08:05:37;;;;;;;34.20;13.53;;;;;;;5.55;66.37;98831.32;4921368;57;1136718;-82
2021/04/05 08:11:12;;;;;;;25.57;9.90;;;;;;;5.62;66.51;98785.27;4817943;59;1136818;-71
2021/04/05 08:17:00;;;;;;;28.37;8.33;;;;;;;5.71;65.52;98785.44;4837991;58;1136933;-78
2021/04/05 08:22:51;;;;;;;25.17;7.63;;;;;;;5.76;65.65;98805.08;4914925;57;1135543;-75
2021/04/05 08:28:55;;;;;;;33.33;7.80;;;;;;;5.80;65.85;98807.80;4924800;57;1135044;-81
2021/04/05 08:34:59;;;;;;;24.70;7.93;;;;;;;5.88;65.12;98796.64;4909479;57;1134577;-75
2021/04/05 08:40:30;;;;;;;23.30;8.93;;;;;;;5.88;64.81;98782.21;4916259;58;1135014;-77
2021/04/05 08:46:25;;;;;;;32.33;11.67;;;;;;;5.94;64.83;98791.74;5066139;56;1134554;-78
2021/04/05 08:51:56;;;;;;;33.28;14.58;;;;;;;6.00;65.03;98769.38;5071274;56;1136588;-81
2021/04/05 08:57:34;;;;;;;26.90;9.47;;;;;;;6.09;65.34;98766.45;5083926;56;1137392;-78
2021/04/05 09:03:03;;;;;;;38.97;14.30;;;;;;;6.17;64.71;98746.91;5074599;56;1134962;-75
2021/04/05 09:08:29;;;;;;;30.20;9.30;;;;;;;6.26;65.20;98744.80;5075968;56;1137029;-76
2021/04/05 09:13:58;;;;;;;43.40;12.47;;;;;;;6.37;64.88;98731.55;5076509;56;1134684;-81
2021/04/05 09:20:01;;;;;;;23.20;9.13;;;;;;;6.57;64.06;98724.02;4956211;58;1136986;-72
2021/04/05 09:25:52;;;;;;;25.03;9.60;;;;;;;6.72;63.63;98732.83;5091647;56;1134865;-78
2021/04/05 09:31:44;;;;;;;20.80;7.13;;;;;;;6.87;62.88;98723.08;5077095;56;1135080;-78
2021/04/05 09:37:42;;;;;;;30.47;10.33;;;;;;;7.00;62.24;98713.59;5060499;56;1134638;-84
2021/04/05 09:43:57;;;;;;;25.30;8.10;;;;;;;7.16;62.73;98703.80;5080750;56;1136601;-75
2021/04/05 09:50:11;;;;;;;39.70;10.47;;;;;;;7.30;61.95;98687.09;4999984;57;1135061;-86
2021/04/05 09:55:44;;;;;;;28.60;9.00;;;;;;;7.47;61.71;98684.20;5074906;56;1136591;-81
2021/04/05 10:01:14;;;;;;;22.93;9.77;;;;;;;7.50;61.06;98700.98;5038485;57;1134444;-74
2021/04/05 10:06:40;;;;;;;22.50;8.70;;;;;;;7.50;61.19;98670.73;5045008;57;1134635;-79
2021/04/05 10:12:09;;;;;;;12.03;5.73;;;;;;;7.53;61.01;98672.25;5089203;56;1134650;-82
2021/04/05 10:17:35;;;;;;;14.00;4.97;;;;;;;7.50;60.78;98691.78;5070541;56;1134677;-74
2021/04/05 10:23:10;;;;;;;26.03;10.57;;;;;;;7.45;62.01;98711.61;5080429;56;1134447;-74
2021/04/05 10:28:38;;;;;;;20.48;9.03;;;;;;;7.36;65.27;98711.48;5096562;56;1222277;-79
2021/04/05 10:34:07;;;;;;;24.37;7.63;;;;;;;7.09;69.34;98701.38;5079224;56;1134661;-78
2021/04/05 10:39:33;;;;;;;24.10;8.97;;;;;;;6.74;72.78;98700.66;5083742;56;1134265;-81
2021/04/05 10:45:11;;;;;;;21.63;7.50;;;;;;;6.54;73.82;98699.37;5097155;56;1136540;-77
2021/04/05 10:50:47;;;;;;;25.92;9.50;;;;;;;6.46;75.68;98710.20;4999378;57;1136617;-76
2021/04/05 10:56:13;;;;;;;19.77;9.83;;;;;;;6.35;77.96;98708.53;4927116;57;1136739;-76
2021/04/05 11:01:51;;;;;;;19.50;8.30;;;;;;;6.26;79.91;98706.23;4941488;58;1134716;-78
2021/04/05 11:07:17;;;;;;;22.60;9.20;;;;;;;6.21;81.16;98707.14;4932379;58;1136855;-79
2021/04/05 11:12:46;;;;;;;27.30;12.17;;;;;;;6.14;81.99;98706.48;4946106;58;1134883;-78
2021/04/05 11:18:16;;;;;;;19.82;7.92;;;;;;;6.08;82.19;98696.55;4940828;58;1136881;-78
2021/04/05 11:23:43;;;;;;;24.95;11.10;;;;;;;6.06;82.20;98696.68;4945891;58;1136845;-78
2021/04/05 11:29:13;;;;;;;21.00;8.83;;;;;;;5.99;82.24;98691.61;4961001;57;1138680;-75
2021/04/05 11:34:43;;;;;;;13.13;6.40;;;;;;;5.90;83.52;98694.57;5101179;56;1134889;-77
2021/04/05 11:40:14;;;;;;;12.03;7.23;;;;;;;5.77;83.42;98699.68;5101172;56;1134505;-80
2021/04/05 11:45:55;;;;;;;19.80;6.83;;;;;;;5.60;83.03;98691.95;5090838;56;1134998;-78
2021/04/05 11:51:29;;;;;;;15.20;7.00;;;;;;;5.49;83.86;98689.44;4974756;57;1134642;-80
2021/04/05 11:56:57;;;;;;;12.55;8.30;;;;;;;5.43;85.13;98678.16;5089659;56;1134471;-72
2021/04/05 12:02:32;;;;;;;16.37;7.33;;;;;;;5.45;84.16;98677.55;4968451;57;1135066;-72
2021/04/05 12:08:03;;;;;;;13.37;7.07;;;;;;;5.38;84.43;98671.16;4951386;58;1134875;-73
2021/04/05 12:13:40;;;;;;;15.33;8.07;;;;;;;5.31;85.09;98666.93;5081622;56;1134487;-72
2021/04/05 12:19:06;;;;;;;17.33;7.20;;;;;;;5.28;85.66;98668.50;4939909;57;1134364;-74
2021/04/05 12:24:42;;;;;;;12.17;5.83;;;;;;;5.22;86.40;98656.73;4996796;57;1134401;-73
2021/04/05 12:30:24;;;;;;;10.83;7.30;;;;;;;5.21;86.51;98667.34;5050538;56;1134590;-74
2021/04/05 12:35:43;;;;;;;2.57;1.70;;;;;;;5.20;86.72;98672.23;5090147;56;1134835;-72
2021/04/05 12:41:12;;;;;;;3.50;1.80;;;;;;;4.96;81.05;98744.57;5117706;56;1132490;-73
2021/04/05 12:46:42;;;;;;;4.28;2.40;;;;;;;3.87;79.19;98750.36;5123957;56;1132709;-75
2021/04/05 12:52:19;;;;;;;3.07;1.83;;;;;;;3.30;82.14;98764.84;5123542;56;1133043;-72
2021/04/05 12:57:46;;;;;;;5.67;2.77;;;;;;;3.12;83.18;98763.97;5107132;56;1132652;-72
2021/04/05 13:03:42;;;;;;;36.07;20.07;;;;;;;3.04;84.67;98762.89;5112608;55;1133586;-77
2021/04/05 13:09:20;;;;;;;51.43;24.80;;;;;;;3.07;84.12;98769.16;5089034;56;1136693;-77
2021/04/05 13:14:56;;;;;;;15.15;9.15;;;;;;;3.09;83.17;98769.88;5011339;57;1136586;-78
2021/04/05 13:20:35;;;;;;;7.33;5.07;;;;;;;3.18;82.97;98758.77;5015681;57;1134737;-77
2021/04/05 13:26:07;;;;;;;7.40;5.87;;;;;;;3.22;82.80;98752.34;5027752;57;1132498;-78
2021/04/05 13:31:34;;;;;;;12.60;4.40;;;;;;;3.31;82.37;98751.66;5027234;57;1132413;-82
2021/04/05 13:37:07;;;;;;;11.90;4.78;;;;;;;3.38;81.84;98744.16;5026115;57;1134499;-78
2021/04/05 13:42:34;;;;;;;12.30;3.73;;;;;;;3.40;81.37;98746.19;5053948;56;1134925;-79
2021/04/05 13:48:10;;;;;;;6.23;2.43;;;;;;;3.43;81.36;98740.27;5047821;57;1134718;-83
2021/04/05 13:53:39;;;;;;;9.33;2.30;;;;;;;3.45;81.22;98746.20;5018761;56;1132498;-81
2021/04/05 13:59:12;;;;;;;5.20;1.87;;;;;;;3.45;80.57;98756.66;5066036;56;1132706;-73
2021/04/05 14:04:45;;;;;;;7.37;1.40;;;;;;;3.48;80.81;98773.42;5059030;55;1132342;-79
2021/04/05 14:10:12;;;;;;;3.87;1.40;;;;;;;3.49;81.42;98780.78;4906576;58;1132374;-83
2021/04/05 14:15:39;;;;;;;1.10;0.97;;;;;;;3.60;80.66;98780.80;4941555;58;1132446;-77
2021/04/05 14:21:05;;;;;;;0.30;0.30;;;;;;;3.52;79.52;98804.05;4935068;57;1132500;-79
2021/04/05 14:26:35;;;;;;;4.27;1.23;;;;;;;2.93;80.51;98860.27;4921861;57;1132815;-76
2021/04/05 14:32:07;;;;;;;3.03;1.13;;;;;;;2.11;81.82;98886.56;4940732;57;1132496;-80
2021/04/05 14:37:38;;;;;;;2.37;1.03;;;;;;;1.73;82.66;98900.06;4865732;57;1133152;-80
2021/04/05 14:43:17;;;;;;;3.53;2.17;;;;;;;1.57;84.69;98908.53;4936304;57;1132453;-81
2021/04/05 14:48:47;;;;;;;3.70;1.87;;;;;;;1.51;84.04;98878.53;4916146;58;1132463;-76
2021/04/05 14:54:17;;;;;;;2.30;2.10;;;;;;;1.64;83.68;98877.23;5160702;55;1132313;-81
2021/04/05 14:59:43;;;;;;;3.13;1.90;;;;;;;1.79;83.46;98867.55;5151716;55;1133098;-77
2021/04/05 15:05:11;;;;;;;3.67;1.13;;;;;;;1.92;83.17;98872.28;5166032;55;1132780;-83
2021/04/05 15:10:40;;;;;;;5.90;3.00;;;;;;;2.03;82.81;98869.77;5134256;55;1132515;-85
2021/04/05 15:27:06;;;;;;;104.20;45.83;;;;;;;2.10;81.32;98871.02;5131936;56;46206;-77
2021/04/05 15:32:34;;;;;;;93.17;41.27;;;;;;;2.20;81.31;98884.25;4972889;58;1134543;-74
2021/04/05 15:38:04;;;;;;;8.37;5.07;;;;;;;2.27;81.62;98883.73;4984367;57;1136456;-84
2021/04/05 15:43:34;;;;;;;7.63;1.90;;;;;;;2.30;80.90;98873.53;4938380;58;1132167;-75
2021/04/05 15:48:53;;;;;;;4.03;1.60;;;;;;;2.30;80.73;98885.27;4956234;58;1133055;-78
2021/04/05 15:54:04;;;;;;;1.73;1.63;;;;;;;2.29;79.81;98888.34;4965306;58;1132973;-78
2021/04/05 15:59:15;;;;;;;2.73;1.30;;;;;;;2.26;80.67;98891.19;4979503;57;1132322;-73
2021/04/05 16:04:57;;;;;;;1.03;1.00;;;;;;;2.24;80.20;98901.36;4916704;58;1132424;-88
2021/04/05 16:10:45;;;;;;;0.90;0.83;;;;;;;2.28;80.52;98908.04;4967419;58;1132117;-77
2021/04/05 16:16:18;;;;;;;1.27;0.80;;;;;;;2.27;80.51;98916.34;4916111;58;1132604;-79
2021/04/05 16:22:04;;;;;;;1.43;0.70;;;;;;;2.29;80.34;98905.30;4907672;58;1132610;-79
2021/04/05 16:27:34;;;;;;;3.80;1.27;;;;;;;2.29;79.89;98917.03;4994699;58;1132516;-80
2021/04/05 16:33:04;;;;;;;1.90;1.33;;;;;;;2.33;80.12;98913.75;4994771;57;1132766;-76
2021/04/05 16:38:47;;;;;;;1.80;1.10;;;;;;;2.34;79.98;98922.78;5018349;57;1132300;-79
2021/04/05 16:44:20;;;;;;;0.90;0.77;;;;;;;2.34;79.64;98928.47;5099019;55;1132334;-78
2021/04/05 16:49:49;;;;;;;1.03;0.90;;;;;;;2.30;78.88;98938.27;5172899;55;1132720;-83
2021/04/05 16:55:21;;;;;;;1.50;1.20;;;;;;;2.27;79.39;98937.67;5127018;55;1132701;-82
2021/04/05 17:00:47;;;;;;;1.42;1.17;;;;;;;2.26;79.12;98938.61;5087294;56;1132684;-81
2021/04/05 17:06:23;;;;;;;3.73;1.90;;;;;;;2.23;78.36;98939.65;5085809;56;1132622;-78
2021/04/05 17:12:00;;;;;;;2.75;1.02;;;;;;;2.23;78.42;98932.30;5013055;57;1132610;-81
2021/04/05 17:17:38;;;;;;;7.13;5.40;;;;;;;2.23;77.92;98939.65;4966387;57;1132289;-81
2021/04/05 17:23:19;;;;;;;5.67;3.30;;;;;;;2.24;77.92;98935.27;5010654;58;1132558;-85
2021/04/05 17:28:48;;;;;;;7.27;6.37;;;;;;;2.20;77.17;98933.80;4934887;58;1132330;-77
2021/04/05 17:34:26;;;;;;;16.17;7.10;;;;;;;2.23;77.57;98940.12;4989086;57;1132170;-76
2021/04/05 17:39:54;;;;;;;2.22;1.85;;;;;;;2.19;77.53;98949.08;4919694;59;1134527;-80
2021/04/05 17:45:26;;;;;;;3.60;1.80;;;;;;;2.16;77.21;98954.03;4926707;58;1132647;-81
2021/04/05 17:51:05;;;;;;;5.80;2.27;;;;;;;2.11;77.19;98950.92;4924559;58;1132321;-84
2021/04/05 17:57:10;;;;;;;9.37;3.53;;;;;;;2.10;77.40;98967.04;5062443;57;1132411;-77
2021/04/05 18:02:51;;;;;;;4.80;2.50;;;;;;;2.07;77.43;98972.45;5066165;56;1132537;-79
2021/04/05 18:08:45;;;;;;;21.47;7.87;;;;;;;2.07;77.53;98973.76;5014676;57;1132602;-77
2021/04/05 18:14:46;;;;;;;7.57;2.77;;;;;;;2.05;77.57;98983.45;5003827;58;1134575;-82
2021/04/05 18:20:25;;;;;;;5.93;2.73;;;;;;;2.05;77.40;98992.58;5004013;57;1132176;-78
2021/04/05 18:26:22;;;;;;;5.33;2.75;;;;;;;2.00;78.02;99004.24;4800188;60;1133118;-84
2021/04/05 18:32:16;;;;;;;3.90;2.37;;;;;;;1.97;78.22;99002.70;4717709;61;1132618;-85
2021/04/05 18:37:43;;;;;;;6.13;2.97;;;;;;;1.93;78.40;98989.96;4631450;62;1132833;-82
2021/04/05 18:43:15;;;;;;;12.50;3.30;;;;;;;1.92;78.28;98994.34;4631026;62;1132565;-84
2021/04/05 18:49:08;;;;;;;11.30;3.37;;;;;;;1.86;78.58;98993.44;4634961;61;1135060;-82
2021/04/05 18:54:43;;;;;;;3.87;1.87;;;;;;;1.83;78.82;99004.55;4629922;62;1134667;-73
2021/04/05 19:00:21;;;;;;;4.70;2.47;;;;;;;1.75;78.67;98992.02;4616989;62;1132459;-76
2021/04/05 19:06:15;;;;;;;1.40;1.27;;;;;;;1.70;78.49;98994.91;4934091;58;1136306;-81
2021/04/05 19:11:59;;;;;;;3.50;1.02;;;;;;;1.56;76.84;99014.52;4977876;58;1132250;-75
2021/04/05 19:17:50;;;;;;;4.15;1.37;;;;;;;1.56;76.84;99014.52;4869880;59;1132563;-73
2021/04/05 19:23:34;;;;;;;4.53;1.20;;;;;;;1.53;76.34;99010.80;4977199;58;1132550;-73
2021/04/05 19:29:23;;;;;;;7.05;2.58;;;;;;;1.53;75.79;99008.70;5053093;57;1132551;-74
2021/04/05 19:35:32;;;;;;;15.13;4.23;;;;;;;1.49;75.24;99012.42;5075258;57;1132865;-73
2021/04/05 19:41:27;;;;;;;11.55;4.42;;;;;;;1.43;74.62;99021.46;5088671;57;1134661;-74
2021/04/05 19:47:35;;;;;;;3.93;1.77;;;;;;;1.40;74.43;99030.30;5127328;56;1134429;-72
2021/04/05 19:53:37;;;;;;;3.17;1.23;;;;;;;1.38;74.09;99035.23;5107341;57;1132376;-72
2021/04/05 19:59:48;;;;;;;9.80;2.10;;;;;;;1.33;74.30;99040.76;5119719;57;1132131;-72
2021/04/05 20:05:35;;;;;;;6.83;2.03;;;;;;;1.29;74.15;99039.73;5136516;56;1132208;-73
2021/04/05 20:11:38;;;;;;;2.43;1.20;;;;;;;1.25;73.97;99046.06;5135119;57;1132248;-73
2021/04/05 20:17:08;;;;;;;5.15;1.60;;;;;;;1.21;72.90;99055.02;5136640;56;1132683;-74
2021/04/05 20:23:00;;;;;;;3.90;1.53;;;;;;;1.18;72.90;99056.52;5135318;57;1132549;-72
2021/04/05 20:28:42;;;;;;;1.20;1.10;;;;;;;1.13;72.38;99059.39;5124384;56;1132733;-72
2021/04/05 20:34:36;;;;;;;2.13;0.90;;;;;;;1.10;72.81;99063.48;5096144;57;1132607;-72
2021/04/05 20:40:08;;;;;;;3.43;1.10;;;;;;;1.08;72.81;99065.80;5076788;56;1132407;-72
2021/04/05 20:46:05;;;;;;;3.47;1.10;;;;;;;1.08;72.29;99065.80;4755688;59;1132232;-72
2021/04/05 20:51:47;;;;;;;10.43;1.07;;;;;;;1.14;72.51;99071.95;5061714;56;1132147;-72
2021/04/05 20:57:38;;;;;;;3.93;1.30;;;;;;;1.14;71.67;99072.78;5047680;57;1135105;-73
2021/04/05 21:03:05;;;;;;;2.70;1.10;;;;;;;1.17;71.29;99083.02;5053701;57;1132603;-72
2021/04/05 21:08:33;;;;;;;5.10;1.70;;;;;;;1.22;70.44;99081.44;5069266;56;1132402;-72
2021/04/05 21:14:20;;;;;;;5.08;1.30;;;;;;;1.25;70.59;99085.96;5070749;56;1132543;-72
2021/04/05 21:19:48;;;;;;;6.25;1.62;;;;;;;1.25;70.08;99100.28;5058301;56;1132768;-73
2021/04/05 21:25:15;;;;;;;3.63;0.70;;;;;;;1.27;70.38;99093.69;4801718;59;1132472;-73
2021/04/05 21:30:45;;;;;;;2.43;1.33;;;;;;;1.27;69.33;99098.89;4765120;60;1143961;-73
2021/04/05 21:36:20;;;;;;;3.40;1.10;;;;;;;1.31;69.31;99106.89;4742478;60;1132657;-72
2021/04/05 21:42:08;;;;;;;7.30;1.03;;;;;;;1.33;69.45;99118.06;4907607;58;1132675;-72
2021/04/05 21:47:36;;;;;;;6.13;1.07;;;;;;;1.37;68.97;99123.45;4903528;58;1132491;-73
2021/04/05 21:53:08;;;;;;;8.20;1.23;;;;;;;1.39;68.84;99125.47;4847610;59;1132479;-72
2021/04/05 21:58:42;;;;;;;3.07;1.00;;;;;;;1.38;69.38;99134.21;4856892;60;1132495;-73
2021/04/05 22:04:11;;;;;;;;;;;;;;;1.40;69.40;99142.77;4870911;59;1132237;-72
2021/04/05 22:09:36;;;;;;;5.43;1.17;;;;;;;1.38;69.77;99151.98;4879623;59;969748;-73
2021/04/05 22:15:13;;;;;;;4.00;0.77;;;;;;;1.38;69.79;99148.08;4867667;59;1130214;-73
2021/04/05 22:20:43;;;;;;;0.80;0.53;;;;;;;1.38;70.68;99159.80;4867091;59;1132256;-73
2021/04/05 22:26:13;;;;;;;1.17;0.73;;;;;;;1.34;71.94;99143.17;4867289;59;1133069;-73
2021/04/05 22:31:40;;;;;;;11.87;2.60;;;;;;;1.32;72.59;99143.73;4867299;59;1132177;-73
2021/04/05 22:37:07;;;;;;;0.90;0.80;;;;;;;1.33;72.96;99133.69;4978241;57;1134363;-73
2021/04/05 22:42:41;;;;;;;3.83;1.00;;;;;;;1.32;72.62;99143.27;5039509;57;1132466;-73
2021/04/05 22:48:11;;;;;;;1.83;0.53;;;;;;;1.29;72.93;99142.14;4974542;58;1132173;-73
2021/04/05 22:53:44;;;;;;;3.23;1.60;;;;;;;1.22;74.91;99146.04;4975188;58;1132177;-73
2021/04/05 22:59:18;;;;;;;8.23;1.73;;;;;;;1.09;77.29;99152.09;5159477;56;1132583;-73
2021/04/05 23:05:06;;;;;;;4.83;1.00;;;;;;;0.97;77.06;99167.53;5158631;56;1132320;-75
2021/04/05 23:10:32;;;;;;;1.42;0.75;;;;;;;0.90;78.08;99172.75;5157963;56;1132272;-72
2021/04/05 23:16:16;;;;;;;3.90;0.75;;;;;;;0.90;78.12;99185.77;5158352;56;1132415;-72
2021/04/05 23:21:49;;;;;;;8.60;1.12;;;;;;;0.92;77.98;99176.53;5157981;56;1132396;-73
2021/04/05 23:27:22;;;;;;;5.83;1.53;;;;;;;0.93;78.00;99184.25;5158367;56;1132377;-73
2021/04/05 23:32:57;;;;;;;2.87;1.20;;;;;;;0.94;78.17;99195.50;5040707;57;1132299;-73
2021/04/05 23:38:32;;;;;;;4.00;0.70;;;;;;;0.96;78.11;99193.65;5078493;57;1132555;-73
2021/04/05 23:44:01;;;;;;;1.83;0.70;;;;;;;0.96;78.22;99198.86;4977633;58;1132546;-73
2021/04/05 23:49:32;;;;;;;1.83;0.70;;;;;;;0.98;78.32;99197.00;5084844;57;1132444;-71
2021/04/05 23:54:59;;;;;;;1.60;0.90;;;;;;;0.99;78.27;99209.94;5083374;57;1132346;-73
